sensor_id;sensor_type;location;lat;lon;timestamp;P1;durP1;ratioP1;P2;durP2;ratioP2
23684;SDS011;12020;51.384;6.908;2023-02-01T00:02:19;13.30;;;6.63;;
23684;SDS011;12020;51.384;6.908;2023-02-01T00:04:44;15.33;;;7.13;;
23684;SDS011;12020;51.384;6.908;2023-02-01T00:07:10;14.27;;;6.70;;
23684;SDS011;12020;51.384;6.908;2023-02-01T00:09:35;14.60;;;6.40;;
23684;SDS011;12020;51.384;6.908;2023-02-01T00:12:01;16.50;;;6.83;;
23684;SDS011;12020;51.384;6.908;2023-02-01T00:14:28;17.58;;;7.05;;
23684;SDS011;12020;51.384;6.908;2023-02-01T00:16:54;14.48;;;6.50;;
23684;SDS011;12020;51.384;6.908;2023-02-01T00:19:20;16.55;;;6.47;;
23684;SDS011;12020;51.384;6.908;2023-02-01T00:21:46;16.53;;;6.50;;
23684;SDS011;12020;51.384;6.908;2023-02-01T00:24:12;15.53;;;6.60;;
23684;SDS011;12020;51.384;6.908;2023-02-01T00:26:39;15.45;;;6.50;;
23684;SDS011;12020;51.384;6.908;2023-02-01T00:29:09;14.25;;;6.03;;
23684;SDS011;12020;51.384;6.908;2023-02-01T00:31:37;16.58;;;6.18;;
23684;SDS011;12020;51.384;6.908;2023-02-01T00:34:03;14.80;;;6.38;;
23684;SDS011;12020;51.384;6.908;2023-02-01T00:36:29;14.85;;;6.10;;
23684;SDS011;12020;51.384;6.908;2023-02-01T00:38:55;14.80;;;5.60;;
23684;SDS011;12020;51.384;6.908;2023-02-01T00:41:21;15.98;;;6.28;;
23684;SDS011;12020;51.384;6.908;2023-02-01T00:43:48;12.23;;;5.90;;
23684;SDS011;12020;51.384;6.908;2023-02-01T00:46:15;15.60;;;6.15;;
23684;SDS011;12020;51.384;6.908;2023-02-01T00:48:42;13.40;;;5.93;;
23684;SDS011;12020;51.384;6.908;2023-02-01T00:51:10;14.18;;;6.32;;
23684;SDS011;12020;51.384;6.908;2023-02-01T00:53:38;15.50;;;6.67;;
23684;SDS011;12020;51.384;6.908;2023-02-01T00:56:04;15.30;;;7.07;;
23684;SDS011;12020;51.384;6.908;2023-02-01T00:58:31;15.48;;;6.50;;
23684;SDS011;12020;51.384;6.908;2023-02-01T01:03:35;16.98;;;7.07;;
23684;SDS011;12020;51.384;6.908;2023-02-01T01:06:04;17.20;;;8.15;;
23684;SDS011;12020;51.384;6.908;2023-02-01T01:08:32;16.58;;;7.88;;
23684;SDS011;12020;51.384;6.908;2023-02-01T01:10:58;14.88;;;8.20;;
23684;SDS011;12020;51.384;6.908;2023-02-01T01:13:24;18.25;;;8.73;;
23684;SDS011;12020;51.384;6.908;2023-02-01T01:15:49;19.20;;;8.70;;
23684;SDS011;12020;51.384;6.908;2023-02-01T01:18:15;15.15;;;9.07;;
23684;SDS011;12020;51.384;6.908;2023-02-01T01:20:41;16.95;;;8.77;;
23684;SDS011;12020;51.384;6.908;2023-02-01T01:23:07;16.20;;;9.00;;
23684;SDS011;12020;51.384;6.908;2023-02-01T01:25:37;16.38;;;8.43;;
23684;SDS011;12020;51.384;6.908;2023-02-01T01:28:04;16.38;;;8.80;;
23684;SDS011;12020;51.384;6.908;2023-02-01T01:30:30;16.83;;;9.02;;
23684;SDS011;12020;51.384;6.908;2023-02-01T01:32:56;16.17;;;9.07;;
23684;SDS011;12020;51.384;6.908;2023-02-01T01:35:22;17.30;;;9.43;;
23684;SDS011;12020;51.384;6.908;2023-02-01T01:37:47;18.10;;;8.90;;
23684;SDS011;12020;51.384;6.908;2023-02-01T01:40:13;18.80;;;8.67;;
23684;SDS011;12020;51.384;6.908;2023-02-01T01:42:40;16.10;;;8.90;;
23684;SDS011;12020;51.384;6.908;2023-02-01T01:47:46;18.33;;;9.05;;
23684;SDS011;12020;51.384;6.908;2023-02-01T01:50:18;19.08;;;8.25;;
23684;SDS011;12020;51.384;6.908;2023-02-01T01:52:55;17.08;;;8.18;;
23684;SDS011;12020;51.384;6.908;2023-02-01T01:55:24;16.30;;;7.35;;
23684;SDS011;12020;51.384;6.908;2023-02-01T01:57:56;19.38;;;7.28;;
23684;SDS011;12020;51.384;6.908;2023-02-01T02:00:27;14.82;;;6.78;;
23684;SDS011;12020;51.384;6.908;2023-02-01T02:02:54;14.93;;;6.63;;
23684;SDS011;12020;51.384;6.908;2023-02-01T02:05:24;14.63;;;6.50;;
23684;SDS011;12020;51.384;6.908;2023-02-01T02:07:52;14.30;;;6.13;;
23684;SDS011;12020;51.384;6.908;2023-02-01T02:10:21;15.63;;;6.35;;
23684;SDS011;12020;51.384;6.908;2023-02-01T02:13:10;16.25;;;6.40;;
23684;SDS011;12020;51.384;6.908;2023-02-01T02:15:37;13.65;;;5.75;;
23684;SDS011;12020;51.384;6.908;2023-02-01T02:18:57;14.80;;;5.70;;
23684;SDS011;12020;51.384;6.908;2023-02-01T02:21:42;16.08;;;6.22;;
23684;SDS011;12020;51.384;6.908;2023-02-01T02:24:40;15.05;;;5.80;;
23684;SDS011;12020;51.384;6.908;2023-02-01T02:35:46;11.57;;;4.60;;
23684;SDS011;12020;51.384;6.908;2023-02-01T02:38:30;14.52;;;5.15;;
23684;SDS011;12020;51.384;6.908;2023-02-01T02:41:11;12.30;;;4.57;;
23684;SDS011;12020;51.384;6.908;2023-02-01T02:47:36;11.75;;;4.43;;
23684;SDS011;12020;51.384;6.908;2023-02-01T02:50:17;13.63;;;4.55;;
23684;SDS011;12020;51.384;6.908;2023-02-01T02:56:54;14.95;;;4.60;;
23684;SDS011;12020;51.384;6.908;2023-02-01T02:59:41;13.90;;;4.80;;
23684;SDS011;12020;51.384;6.908;2023-02-01T03:02:29;14.45;;;4.68;;
23684;SDS011;12020;51.384;6.908;2023-02-01T03:05:15;13.90;;;4.53;;
23684;SDS011;12020;51.384;6.908;2023-02-01T03:10:17;16.90;;;4.85;;
23684;SDS011;12020;51.384;6.908;2023-02-01T03:18:57;13.82;;;4.20;;
23684;SDS011;12020;51.384;6.908;2023-02-01T03:21:45;14.40;;;4.38;;
23684;SDS011;12020;51.384;6.908;2023-02-01T03:24:16;16.17;;;4.67;;
23684;SDS011;12020;51.384;6.908;2023-02-01T03:26:52;15.40;;;4.50;;
23684;SDS011;12020;51.384;6.908;2023-02-01T03:29:25;14.03;;;4.47;;
23684;SDS011;12020;51.384;6.908;2023-02-01T03:31:57;15.70;;;4.83;;
23684;SDS011;12020;51.384;6.908;2023-02-01T03:34:22;17.20;;;5.35;;
23684;SDS011;12020;51.384;6.908;2023-02-01T03:36:50;12.77;;;4.50;;
23684;SDS011;12020;51.384;6.908;2023-02-01T03:42:30;15.37;;;4.73;;
23684;SDS011;12020;51.384;6.908;2023-02-01T03:47:40;13.77;;;4.50;;
23684;SDS011;12020;51.384;6.908;2023-02-01T03:50:09;15.32;;;4.90;;
23684;SDS011;12020;51.384;6.908;2023-02-01T03:52:40;17.70;;;5.60;;
23684;SDS011;12020;51.384;6.908;2023-02-01T03:55:10;14.68;;;5.28;;
23684;SDS011;12020;51.384;6.908;2023-02-01T03:57:41;18.58;;;6.32;;
23684;SDS011;12020;51.384;6.908;2023-02-01T04:00:17;16.30;;;5.45;;
23684;SDS011;12020;51.384;6.908;2023-02-01T04:02:48;18.42;;;5.78;;
23684;SDS011;12020;51.384;6.908;2023-02-01T04:05:14;15.35;;;5.85;;
23684;SDS011;12020;51.384;6.908;2023-02-01T04:07:40;15.23;;;5.10;;
23684;SDS011;12020;51.384;6.908;2023-02-01T04:10:06;16.40;;;5.18;;
23684;SDS011;12020;51.384;6.908;2023-02-01T04:12:33;15.00;;;5.40;;
23684;SDS011;12020;51.384;6.908;2023-02-01T04:14:58;17.35;;;5.10;;
23684;SDS011;12020;51.384;6.908;2023-02-01T04:17:24;14.93;;;5.15;;
23684;SDS011;12020;51.384;6.908;2023-02-01T04:19:49;14.57;;;4.73;;
23684;SDS011;12020;51.384;6.908;2023-02-01T04:22:15;14.20;;;4.57;;
23684;SDS011;12020;51.384;6.908;2023-02-01T04:24:41;16.37;;;5.10;;
23684;SDS011;12020;51.384;6.908;2023-02-01T04:27:08;15.38;;;4.70;;
23684;SDS011;12020;51.384;6.908;2023-02-01T04:29:33;15.57;;;4.88;;
23684;SDS011;12020;51.384;6.908;2023-02-01T04:31:59;17.17;;;4.73;;
23684;SDS011;12020;51.384;6.908;2023-02-01T04:34:25;15.73;;;4.63;;
23684;SDS011;12020;51.384;6.908;2023-02-01T04:36:51;13.40;;;4.50;;
23684;SDS011;12020;51.384;6.908;2023-02-01T04:39:17;16.85;;;5.63;;
23684;SDS011;12020;51.384;6.908;2023-02-01T04:41:43;17.43;;;5.90;;
23684;SDS011;12020;51.384;6.908;2023-02-01T04:44:19;20.65;;;5.82;;
23684;SDS011;12020;51.384;6.908;2023-02-01T04:46:45;17.55;;;5.90;;
23684;SDS011;12020;51.384;6.908;2023-02-01T04:51:40;18.65;;;6.30;;
23684;SDS011;12020;51.384;6.908;2023-02-01T04:54:06;19.90;;;6.83;;
23684;SDS011;12020;51.384;6.908;2023-02-01T04:56:32;19.80;;;6.95;;
23684;SDS011;12020;51.384;6.908;2023-02-01T04:59:00;18.38;;;6.60;;
23684;SDS011;12020;51.384;6.908;2023-02-01T05:01:28;21.83;;;7.23;;
23684;SDS011;12020;51.384;6.908;2023-02-01T05:03:54;16.88;;;6.53;;
23684;SDS011;12020;51.384;6.908;2023-02-01T05:06:20;20.05;;;7.22;;
23684;SDS011;12020;51.384;6.908;2023-02-01T05:08:46;19.33;;;6.25;;
23684;SDS011;12020;51.384;6.908;2023-02-01T05:11:11;19.13;;;6.63;;
23684;SDS011;12020;51.384;6.908;2023-02-01T05:13:57;16.70;;;5.57;;
23684;SDS011;12020;51.384;6.908;2023-02-01T05:16:24;18.30;;;6.85;;
23684;SDS011;12020;51.384;6.908;2023-02-01T05:18:50;20.88;;;6.40;;
23684;SDS011;12020;51.384;6.908;2023-02-01T05:21:16;18.40;;;6.30;;
23684;SDS011;12020;51.384;6.908;2023-02-01T05:23:41;16.93;;;6.00;;
23684;SDS011;12020;51.384;6.908;2023-02-01T05:26:25;19.00;;;6.97;;
23684;SDS011;12020;51.384;6.908;2023-02-01T05:28:51;19.13;;;6.25;;
23684;SDS011;12020;51.384;6.908;2023-02-01T05:31:17;18.23;;;6.20;;
23684;SDS011;12020;51.384;6.908;2023-02-01T05:33:43;17.90;;;5.85;;
23684;SDS011;12020;51.384;6.908;2023-02-01T05:36:08;19.00;;;6.70;;
23684;SDS011;12020;51.384;6.908;2023-02-01T05:38:35;21.27;;;6.40;;
23684;SDS011;12020;51.384;6.908;2023-02-01T05:41:01;19.83;;;6.25;;
23684;SDS011;12020;51.384;6.908;2023-02-01T05:43:26;18.97;;;6.40;;
23684;SDS011;12020;51.384;6.908;2023-02-01T05:45:52;20.97;;;7.00;;
23684;SDS011;12020;51.384;6.908;2023-02-01T05:48:18;19.07;;;7.33;;
23684;SDS011;12020;51.384;6.908;2023-02-01T05:50:44;20.15;;;6.35;;
23684;SDS011;12020;51.384;6.908;2023-02-01T05:53:10;19.30;;;6.28;;
23684;SDS011;12020;51.384;6.908;2023-02-01T05:55:36;19.67;;;5.80;;
23684;SDS011;12020;51.384;6.908;2023-02-01T05:58:03;15.50;;;5.82;;
23684;SDS011;12020;51.384;6.908;2023-02-01T06:00:31;22.63;;;6.38;;
23684;SDS011;12020;51.384;6.908;2023-02-01T06:02:57;19.53;;;6.37;;
23684;SDS011;12020;51.384;6.908;2023-02-01T06:05:24;19.48;;;5.95;;
23684;SDS011;12020;51.384;6.908;2023-02-01T06:07:49;16.45;;;5.50;;
23684;SDS011;12020;51.384;6.908;2023-02-01T06:10:18;18.30;;;5.60;;
23684;SDS011;12020;51.384;6.908;2023-02-01T06:12:46;17.20;;;5.90;;
23684;SDS011;12020;51.384;6.908;2023-02-01T06:15:14;16.73;;;5.65;;
23684;SDS011;12020;51.384;6.908;2023-02-01T06:17:44;23.00;;;5.57;;
23684;SDS011;12020;51.384;6.908;2023-02-01T06:20:11;21.93;;;5.47;;
23684;SDS011;12020;51.384;6.908;2023-02-01T06:25:07;16.40;;;5.00;;
23684;SDS011;12020;51.384;6.908;2023-02-01T06:27:35;17.80;;;5.00;;
23684;SDS011;12020;51.384;6.908;2023-02-01T06:30:01;20.50;;;6.10;;
23684;SDS011;12020;51.384;6.908;2023-02-01T06:32:28;16.20;;;5.70;;
23684;SDS011;12020;51.384;6.908;2023-02-01T06:34:54;17.33;;;5.83;;
23684;SDS011;12020;51.384;6.908;2023-02-01T06:37:22;20.23;;;6.55;;
23684;SDS011;12020;51.384;6.908;2023-02-01T06:39:54;20.53;;;6.20;;
23684;SDS011;12020;51.384;6.908;2023-02-01T06:42:20;14.15;;;5.43;;
23684;SDS011;12020;51.384;6.908;2023-02-01T06:44:49;18.13;;;6.03;;
23684;SDS011;12020;51.384;6.908;2023-02-01T06:47:14;19.98;;;5.88;;
23684;SDS011;12020;51.384;6.908;2023-02-01T06:49:40;18.10;;;5.43;;
23684;SDS011;12020;51.384;6.908;2023-02-01T06:52:05;16.33;;;5.00;;
23684;SDS011;12020;51.384;6.908;2023-02-01T06:54:31;18.08;;;5.53;;
23684;SDS011;12020;51.384;6.908;2023-02-01T06:56:58;19.23;;;6.18;;
23684;SDS011;12020;51.384;6.908;2023-02-01T06:59:25;21.95;;;6.13;;
23684;SDS011;12020;51.384;6.908;2023-02-01T07:01:51;19.20;;;6.43;;
23684;SDS011;12020;51.384;6.908;2023-02-01T07:04:16;19.02;;;5.90;;
23684;SDS011;12020;51.384;6.908;2023-02-01T07:06:42;15.52;;;5.03;;
23684;SDS011;12020;51.384;6.908;2023-02-01T07:09:09;15.38;;;5.13;;
23684;SDS011;12020;51.384;6.908;2023-02-01T07:11:34;20.75;;;5.53;;
23684;SDS011;12020;51.384;6.908;2023-02-01T07:14:02;20.10;;;5.38;;
23684;SDS011;12020;51.384;6.908;2023-02-01T07:16:28;21.33;;;5.35;;
23684;SDS011;12020;51.384;6.908;2023-02-01T07:18:55;17.27;;;5.80;;
23684;SDS011;12020;51.384;6.908;2023-02-01T07:21:22;17.67;;;4.90;;
23684;SDS011;12020;51.384;6.908;2023-02-01T07:23:48;15.68;;;5.07;;
23684;SDS011;12020;51.384;6.908;2023-02-01T07:26:18;19.85;;;5.22;;
23684;SDS011;12020;51.384;6.908;2023-02-01T07:28:44;17.13;;;5.60;;
23684;SDS011;12020;51.384;6.908;2023-02-01T07:31:12;17.10;;;5.63;;
23684;SDS011;12020;51.384;6.908;2023-02-01T07:33:50;20.27;;;6.10;;
23684;SDS011;12020;51.384;6.908;2023-02-01T07:36:21;20.27;;;6.30;;
23684;SDS011;12020;51.384;6.908;2023-02-01T07:38:46;17.10;;;5.72;;
23684;SDS011;12020;51.384;6.908;2023-02-01T07:41:13;19.75;;;5.82;;
23684;SDS011;12020;51.384;6.908;2023-02-01T07:43:40;22.52;;;6.13;;
23684;SDS011;12020;51.384;6.908;2023-02-01T07:46:05;18.58;;;5.68;;
23684;SDS011;12020;51.384;6.908;2023-02-01T07:48:33;15.93;;;6.00;;
23684;SDS011;12020;51.384;6.908;2023-02-01T07:51:00;16.65;;;5.45;;
23684;SDS011;12020;51.384;6.908;2023-02-01T07:53:36;19.47;;;6.23;;
23684;SDS011;12020;51.384;6.908;2023-02-01T07:56:02;14.60;;;5.43;;
23684;SDS011;12020;51.384;6.908;2023-02-01T07:58:29;18.48;;;6.10;;
23684;SDS011;12020;51.384;6.908;2023-02-01T08:00:55;19.17;;;6.50;;
23684;SDS011;12020;51.384;6.908;2023-02-01T08:03:40;17.42;;;5.68;;
23684;SDS011;12020;51.384;6.908;2023-02-01T08:06:06;20.58;;;6.25;;
23684;SDS011;12020;51.384;6.908;2023-02-01T08:08:32;17.08;;;6.47;;
23684;SDS011;12020;51.384;6.908;2023-02-01T08:10:58;18.55;;;6.57;;
23684;SDS011;12020;51.384;6.908;2023-02-01T08:13:29;20.10;;;6.82;;
23684;SDS011;12020;51.384;6.908;2023-02-01T08:15:58;18.35;;;6.07;;
23684;SDS011;12020;51.384;6.908;2023-02-01T08:18:24;18.08;;;5.97;;
23684;SDS011;12020;51.384;6.908;2023-02-01T08:20:50;16.52;;;6.47;;
23684;SDS011;12020;51.384;6.908;2023-02-01T08:23:16;18.33;;;6.25;;
23684;SDS011;12020;51.384;6.908;2023-02-01T08:25:42;18.15;;;6.50;;
23684;SDS011;12020;51.384;6.908;2023-02-01T08:28:09;19.02;;;6.53;;
23684;SDS011;12020;51.384;6.908;2023-02-01T08:30:38;19.20;;;6.78;;
23684;SDS011;12020;51.384;6.908;2023-02-01T08:33:06;20.33;;;7.05;;
23684;SDS011;12020;51.384;6.908;2023-02-01T08:35:34;22.55;;;6.53;;
23684;SDS011;12020;51.384;6.908;2023-02-01T08:38:00;18.53;;;6.00;;
23684;SDS011;12020;51.384;6.908;2023-02-01T08:40:29;15.82;;;5.65;;
23684;SDS011;12020;51.384;6.908;2023-02-01T08:42:56;18.70;;;6.30;;
23684;SDS011;12020;51.384;6.908;2023-02-01T08:45:23;20.08;;;6.25;;
23684;SDS011;12020;51.384;6.908;2023-02-01T08:47:55;20.98;;;6.25;;
23684;SDS011;12020;51.384;6.908;2023-02-01T08:50:22;21.65;;;6.35;;
23684;SDS011;12020;51.384;6.908;2023-02-01T08:52:48;16.33;;;6.10;;
23684;SDS011;12020;51.384;6.908;2023-02-01T08:55:14;18.17;;;5.50;;
23684;SDS011;12020;51.384;6.908;2023-02-01T08:57:40;16.92;;;5.18;;
23684;SDS011;12020;51.384;6.908;2023-02-01T09:00:07;24.00;;;6.03;;
23684;SDS011;12020;51.384;6.908;2023-02-01T09:02:35;16.63;;;5.75;;
23684;SDS011;12020;51.384;6.908;2023-02-01T09:05:01;15.33;;;4.83;;
23684;SDS011;12020;51.384;6.908;2023-02-01T09:07:27;19.00;;;5.88;;
23684;SDS011;12020;51.384;6.908;2023-02-01T09:09:53;19.83;;;5.35;;
23684;SDS011;12020;51.384;6.908;2023-02-01T09:12:21;17.08;;;5.93;;
23684;SDS011;12020;51.384;6.908;2023-02-01T09:14:47;15.93;;;5.18;;
23684;SDS011;12020;51.384;6.908;2023-02-01T09:17:13;19.40;;;5.85;;
23684;SDS011;12020;51.384;6.908;2023-02-01T09:19:39;17.53;;;5.53;;
23684;SDS011;12020;51.384;6.908;2023-02-01T09:22:05;15.45;;;5.53;;
23684;SDS011;12020;51.384;6.908;2023-02-01T09:24:31;19.90;;;5.30;;
23684;SDS011;12020;51.384;6.908;2023-02-01T09:26:56;16.15;;;5.20;;
23684;SDS011;12020;51.384;6.908;2023-02-01T09:29:23;16.90;;;5.15;;
23684;SDS011;12020;51.384;6.908;2023-02-01T09:31:49;17.85;;;5.38;;
23684;SDS011;12020;51.384;6.908;2023-02-01T09:34:14;18.23;;;5.15;;
23684;SDS011;12020;51.384;6.908;2023-02-01T09:36:40;15.13;;;4.88;;
23684;SDS011;12020;51.384;6.908;2023-02-01T09:39:06;16.47;;;5.10;;
23684;SDS011;12020;51.384;6.908;2023-02-01T09:47:23;16.65;;;5.32;;
23684;SDS011;12020;51.384;6.908;2023-02-01T09:52:17;20.85;;;5.80;;
23684;SDS011;12020;51.384;6.908;2023-02-01T09:54:53;12.98;;;4.50;;
23684;SDS011;12020;51.384;6.908;2023-02-01T09:57:28;16.17;;;4.75;;
23684;SDS011;12020;51.384;6.908;2023-02-01T10:00:17;16.17;;;4.88;;
23684;SDS011;12020;51.384;6.908;2023-02-01T10:02:46;16.33;;;4.70;;
23684;SDS011;12020;51.384;6.908;2023-02-01T10:05:12;12.85;;;5.28;;
23684;SDS011;12020;51.384;6.908;2023-02-01T10:10:43;17.52;;;5.45;;
23684;SDS011;12020;51.384;6.908;2023-02-01T10:18:33;15.93;;;5.37;;
23684;SDS011;12020;51.384;6.908;2023-02-01T10:26:32;14.37;;;5.20;;
23684;SDS011;12020;51.384;6.908;2023-02-01T10:29:03;16.52;;;5.25;;
23684;SDS011;12020;51.384;6.908;2023-02-01T10:31:38;16.10;;;5.07;;
23684;SDS011;12020;51.384;6.908;2023-02-01T10:34:25;16.48;;;5.32;;
23684;SDS011;12020;51.384;6.908;2023-02-01T10:36:57;17.95;;;5.18;;
23684;SDS011;12020;51.384;6.908;2023-02-01T10:39:26;17.08;;;5.25;;
23684;SDS011;12020;51.384;6.908;2023-02-01T10:41:52;17.02;;;5.72;;
23684;SDS011;12020;51.384;6.908;2023-02-01T10:44:22;16.88;;;5.10;;
23684;SDS011;12020;51.384;6.908;2023-02-01T10:46:53;17.33;;;5.00;;
23684;SDS011;12020;51.384;6.908;2023-02-01T10:49:26;18.83;;;5.20;;
23684;SDS011;12020;51.384;6.908;2023-02-01T10:58:07;15.02;;;4.90;;
23684;SDS011;12020;51.384;6.908;2023-02-01T11:00:42;17.70;;;5.43;;
23684;SDS011;12020;51.384;6.908;2023-02-01T11:06:17;16.02;;;5.43;;
23684;SDS011;12020;51.384;6.908;2023-02-01T11:08:51;18.45;;;5.50;;
23684;SDS011;12020;51.384;6.908;2023-02-01T11:11:19;13.82;;;4.88;;
23684;SDS011;12020;51.384;6.908;2023-02-01T11:13:51;18.15;;;5.03;;
23684;SDS011;12020;51.384;6.908;2023-02-01T11:16:18;17.70;;;5.13;;
23684;SDS011;12020;51.384;6.908;2023-02-01T11:18:44;16.25;;;4.85;;
23684;SDS011;12020;51.384;6.908;2023-02-01T11:21:17;15.43;;;4.97;;
23684;SDS011;12020;51.384;6.908;2023-02-01T11:23:43;17.50;;;5.10;;
23684;SDS011;12020;51.384;6.908;2023-02-01T11:26:21;14.85;;;4.57;;
23684;SDS011;12020;51.384;6.908;2023-02-01T11:28:52;15.65;;;4.20;;
23684;SDS011;12020;51.384;6.908;2023-02-01T11:31:22;14.02;;;4.18;;
23684;SDS011;12020;51.384;6.908;2023-02-01T11:33:50;13.15;;;4.50;;
23684;SDS011;12020;51.384;6.908;2023-02-01T11:36:21;14.88;;;4.70;;
23684;SDS011;12020;51.384;6.908;2023-02-01T11:39:07;17.58;;;4.70;;
23684;SDS011;12020;51.384;6.908;2023-02-01T11:41:34;15.55;;;4.53;;
23684;SDS011;12020;51.384;6.908;2023-02-01T11:44:15;14.25;;;4.45;;
23684;SDS011;12020;51.384;6.908;2023-02-01T11:46:46;15.33;;;4.43;;
23684;SDS011;12020;51.384;6.908;2023-02-01T12:03:24;14.98;;;4.60;;
23684;SDS011;12020;51.384;6.908;2023-02-01T12:06:36;12.95;;;4.53;;
23684;SDS011;12020;51.384;6.908;2023-02-01T12:11:38;15.95;;;4.80;;
23684;SDS011;12020;51.384;6.908;2023-02-01T12:17:16;18.05;;;4.90;;
23684;SDS011;12020;51.384;6.908;2023-02-01T12:23:00;14.43;;;4.70;;
23684;SDS011;12020;51.384;6.908;2023-02-01T12:34:14;14.75;;;4.72;;
23684;SDS011;12020;51.384;6.908;2023-02-01T12:36:53;17.45;;;4.10;;
23684;SDS011;12020;51.384;6.908;2023-02-01T12:42:26;14.75;;;4.60;;
23684;SDS011;12020;51.384;6.908;2023-02-01T12:45:32;16.75;;;4.43;;
23684;SDS011;12020;51.384;6.908;2023-02-01T12:50:48;10.57;;;3.80;;
23684;SDS011;12020;51.384;6.908;2023-02-01T12:59:13;12.40;;;3.65;;
23684;SDS011;12020;51.384;6.908;2023-02-01T13:01:49;15.05;;;4.30;;
23684;SDS011;12020;51.384;6.908;2023-02-01T13:04:32;15.37;;;4.10;;
23684;SDS011;12020;51.384;6.908;2023-02-01T13:12:24;13.10;;;3.85;;
23684;SDS011;12020;51.384;6.908;2023-02-01T13:14:56;13.43;;;3.55;;
23684;SDS011;12020;51.384;6.908;2023-02-01T13:17:28;16.05;;;3.50;;
23684;SDS011;12020;51.384;6.908;2023-02-01T13:19:57;13.55;;;3.75;;
23684;SDS011;12020;51.384;6.908;2023-02-01T13:22:45;11.35;;;4.13;;
23684;SDS011;12020;51.384;6.908;2023-02-01T13:28:28;14.02;;;3.63;;
23684;SDS011;12020;51.384;6.908;2023-02-01T13:31:20;11.48;;;3.42;;
23684;SDS011;12020;51.384;6.908;2023-02-01T13:40:04;11.30;;;3.50;;
23684;SDS011;12020;51.384;6.908;2023-02-01T13:42:57;11.32;;;3.13;;
23684;SDS011;12020;51.384;6.908;2023-02-01T13:45:27;12.90;;;3.70;;
23684;SDS011;12020;51.384;6.908;2023-02-01T13:47:57;12.93;;;3.13;;
23684;SDS011;12020;51.384;6.908;2023-02-01T13:55:36;12.50;;;3.55;;
23684;SDS011;12020;51.384;6.908;2023-02-01T13:58:20;11.95;;;3.05;;
23684;SDS011;12020;51.384;6.908;2023-02-01T14:03:54;11.98;;;3.45;;
23684;SDS011;12020;51.384;6.908;2023-02-01T14:11:39;14.30;;;3.33;;
23684;SDS011;12020;51.384;6.908;2023-02-01T14:19:32;12.68;;;3.20;;
23684;SDS011;12020;51.384;6.908;2023-02-01T14:22:00;12.27;;;3.50;;
23684;SDS011;12020;51.384;6.908;2023-02-01T14:24:55;17.38;;;3.63;;
23684;SDS011;12020;51.384;6.908;2023-02-01T14:27:29;12.90;;;3.50;;
23684;SDS011;12020;51.384;6.908;2023-02-01T14:30:01;17.52;;;4.03;;
23684;SDS011;12020;51.384;6.908;2023-02-01T14:32:36;12.57;;;3.25;;
23684;SDS011;12020;51.384;6.908;2023-02-01T14:35:36;13.35;;;3.20;;
23684;SDS011;12020;51.384;6.908;2023-02-01T14:37:59;12.35;;;3.08;;
23684;SDS011;12020;51.384;6.908;2023-02-01T14:40:29;15.57;;;3.90;;
23684;SDS011;12020;51.384;6.908;2023-02-01T14:42:55;14.07;;;2.90;;
23684;SDS011;12020;51.384;6.908;2023-02-01T14:53:24;11.70;;;3.35;;
23684;SDS011;12020;51.384;6.908;2023-02-01T14:56:04;10.60;;;3.30;;
23684;SDS011;12020;51.384;6.908;2023-02-01T14:58:52;14.52;;;4.00;;
23684;SDS011;12020;51.384;6.908;2023-02-01T15:01:48;11.93;;;3.37;;
23684;SDS011;12020;51.384;6.908;2023-02-01T15:04:18;12.98;;;3.53;;
23684;SDS011;12020;51.384;6.908;2023-02-01T15:06:57;11.75;;;3.22;;
23684;SDS011;12020;51.384;6.908;2023-02-01T15:09:38;13.82;;;3.20;;
23684;SDS011;12020;51.384;6.908;2023-02-01T15:12:23;11.07;;;3.10;;
23684;SDS011;12020;51.384;6.908;2023-02-01T15:15:17;11.73;;;3.50;;
23684;SDS011;12020;51.384;6.908;2023-02-01T15:17:52;11.20;;;2.92;;
23684;SDS011;12020;51.384;6.908;2023-02-01T15:20:29;13.38;;;3.50;;
23684;SDS011;12020;51.384;6.908;2023-02-01T15:23:06;10.52;;;3.05;;
23684;SDS011;12020;51.384;6.908;2023-02-01T15:25:44;14.40;;;3.33;;
23684;SDS011;12020;51.384;6.908;2023-02-01T15:28:13;13.32;;;3.47;;
23684;SDS011;12020;51.384;6.908;2023-02-01T15:30:50;11.35;;;3.22;;
23684;SDS011;12020;51.384;6.908;2023-02-01T15:33:25;13.27;;;3.70;;
23684;SDS011;12020;51.384;6.908;2023-02-01T15:35:53;10.13;;;3.00;;
23684;SDS011;12020;51.384;6.908;2023-02-01T15:38:40;12.70;;;3.40;;
23684;SDS011;12020;51.384;6.908;2023-02-01T15:41:19;14.70;;;3.50;;
23684;SDS011;12020;51.384;6.908;2023-02-01T15:44:10;14.30;;;3.50;;
23684;SDS011;12020;51.384;6.908;2023-02-01T15:47:06;15.20;;;3.53;;
23684;SDS011;12020;51.384;6.908;2023-02-01T15:49:43;11.15;;;3.03;;
23684;SDS011;12020;51.384;6.908;2023-02-01T15:52:35;14.10;;;3.42;;
23684;SDS011;12020;51.384;6.908;2023-02-01T15:55:17;13.57;;;3.20;;
23684;SDS011;12020;51.384;6.908;2023-02-01T15:57:50;15.35;;;3.42;;
23684;SDS011;12020;51.384;6.908;2023-02-01T16:00:24;12.88;;;3.17;;
23684;SDS011;12020;51.384;6.908;2023-02-01T16:03:04;12.50;;;3.30;;
23684;SDS011;12020;51.384;6.908;2023-02-01T16:08:48;12.77;;;3.75;;
23684;SDS011;12020;51.384;6.908;2023-02-01T16:11:23;12.38;;;3.70;;
23684;SDS011;12020;51.384;6.908;2023-02-01T16:13:54;12.23;;;3.67;;
23684;SDS011;12020;51.384;6.908;2023-02-01T16:16:21;13.05;;;3.80;;
23684;SDS011;12020;51.384;6.908;2023-02-01T16:18:52;15.98;;;4.07;;
23684;SDS011;12020;51.384;6.908;2023-02-01T16:21:19;14.60;;;4.20;;
23684;SDS011;12020;51.384;6.908;2023-02-01T16:23:48;14.03;;;3.80;;
23684;SDS011;12020;51.384;6.908;2023-02-01T16:26:18;13.57;;;4.57;;
23684;SDS011;12020;51.384;6.908;2023-02-01T16:31:30;15.20;;;4.10;;
23684;SDS011;12020;51.384;6.908;2023-02-01T16:33:59;15.20;;;4.95;;
23684;SDS011;12020;51.384;6.908;2023-02-01T16:36:39;18.55;;;4.68;;
23684;SDS011;12020;51.384;6.908;2023-02-01T16:39:26;16.63;;;4.00;;
23684;SDS011;12020;51.384;6.908;2023-02-01T16:41:59;15.43;;;4.57;;
23684;SDS011;12020;51.384;6.908;2023-02-01T16:44:27;14.63;;;4.65;;
23684;SDS011;12020;51.384;6.908;2023-02-01T16:47:01;13.10;;;4.60;;
23684;SDS011;12020;51.384;6.908;2023-02-01T16:49:34;16.50;;;4.78;;
23684;SDS011;12020;51.384;6.908;2023-02-01T16:54:50;16.17;;;4.85;;
23684;SDS011;12020;51.384;6.908;2023-02-01T16:59:56;17.90;;;4.65;;
23684;SDS011;12020;51.384;6.908;2023-02-01T17:02:25;13.15;;;4.53;;
23684;SDS011;12020;51.384;6.908;2023-02-01T17:04:52;13.10;;;4.20;;
23684;SDS011;12020;51.384;6.908;2023-02-01T17:07:19;16.05;;;4.10;;
23684;SDS011;12020;51.384;6.908;2023-02-01T17:09:47;13.07;;;3.83;;
23684;SDS011;12020;51.384;6.908;2023-02-01T17:12:23;12.30;;;3.92;;
23684;SDS011;12020;51.384;6.908;2023-02-01T17:14:57;12.40;;;3.97;;
23684;SDS011;12020;51.384;6.908;2023-02-01T17:20:29;15.85;;;4.40;;
23684;SDS011;12020;51.384;6.908;2023-02-01T17:22:58;16.75;;;4.50;;
23684;SDS011;12020;51.384;6.908;2023-02-01T17:27:57;13.88;;;4.07;;
23684;SDS011;12020;51.384;6.908;2023-02-01T17:30:32;11.90;;;4.10;;
23684;SDS011;12020;51.384;6.908;2023-02-01T17:33:00;16.88;;;5.00;;
23684;SDS011;12020;51.384;6.908;2023-02-01T17:35:37;14.02;;;4.70;;
23684;SDS011;12020;51.384;6.908;2023-02-01T17:38:11;14.20;;;4.45;;
23684;SDS011;12020;51.384;6.908;2023-02-01T17:40:37;15.55;;;4.38;;
23684;SDS011;12020;51.384;6.908;2023-02-01T17:43:03;13.10;;;4.10;;
23684;SDS011;12020;51.384;6.908;2023-02-01T17:45:34;15.77;;;4.30;;
23684;SDS011;12020;51.384;6.908;2023-02-01T17:48:22;14.30;;;4.03;;
23684;SDS011;12020;51.384;6.908;2023-02-01T17:50:49;15.90;;;4.40;;